sensor_id;sensor_type;location;lat;lon;timestamp;pressure;altitude;pressure_sealevel;temperature;humidity
43071;BME280;36278;47.952;21.714;2023-02-11T00:01:28;102430.91;;;-1.46;77.19
43071;BME280;36278;47.952;21.714;2023-02-11T00:03:55;102437.78;;;-1.51;76.84
43071;BME280;36278;47.952;21.714;2023-02-11T00:06:22;102435.16;;;-1.54;77.09
43071;BME280;36278;47.952;21.714;2023-02-11T00:08:47;102427.38;;;-1.54;77.07
43071;BME280;36278;47.952;21.714;2023-02-11T00:11:15;102423.00;;;-1.55;77.00
43071;BME280;36278;47.952;21.714;2023-02-11T00:13:44;102413.47;;;-1.56;77.08
43071;BME280;36278;47.952;21.714;2023-02-11T00:16:12;102427.31;;;-1.56;77.18
43071;BME280;36278;47.952;21.714;2023-02-11T00:18:38;102432.50;;;-1.62;76.62
43071;BME280;36278;47.952;21.714;2023-02-11T00:21:13;102433.38;;;-1.60;77.54
43071;BME280;36278;47.952;21.714;2023-02-11T00:23:39;102429.91;;;-1.57;77.00
43071;BME280;36278;47.952;21.714;2023-02-11T00:26:17;102429.91;;;-1.57;76.01
43071;BME280;36278;47.952;21.714;2023-02-11T00:28:43;102419.56;;;-1.53;76.28
43071;BME280;36278;47.952;21.714;2023-02-11T00:31:09;102424.78;;;-1.50;76.04
43071;BME280;36278;47.952;21.714;2023-02-11T00:33:34;102428.19;;;-1.55;76.78
43071;BME280;36278;47.952;21.714;2023-02-11T00:36:04;102416.88;;;-1.63;76.97
43071;BME280;36278;47.952;21.714;2023-02-11T00:38:30;102433.38;;;-1.58;75.83
43071;BME280;36278;47.952;21.714;2023-02-11T00:40:56;102425.56;;;-1.63;76.25
43071;BME280;36278;47.952;21.714;2023-02-11T00:43:21;102426.31;;;-1.72;76.56
43071;BME280;36278;47.952;21.714;2023-02-11T00:45:46;102423.72;;;-1.73;77.21
43071;BME280;36278;47.952;21.714;2023-02-11T00:48:12;102423.56;;;-1.90;77.49
43071;BME280;36278;47.952;21.714;2023-02-11T00:50:37;102432.22;;;-1.89;78.37
43071;BME280;36278;47.952;21.714;2023-02-11T00:53:03;102427.13;;;-1.80;77.62
43071;BME280;36278;47.952;21.714;2023-02-11T00:55:29;102420.19;;;-1.80;77.46
43071;BME280;36278;47.952;21.714;2023-02-11T00:57:55;102416.75;;;-1.79;77.25
43071;BME280;36278;47.952;21.714;2023-02-11T01:00:21;102412.50;;;-1.69;77.06
43071;BME280;36278;47.952;21.714;2023-02-11T01:02:46;102406.38;;;-1.77;77.09
43071;BME280;36278;47.952;21.714;2023-02-11T01:05:12;102407.25;;;-1.77;76.77
43071;BME280;36278;47.952;21.714;2023-02-11T01:07:37;102396.78;;;-1.86;78.12
43071;BME280;36278;47.952;21.714;2023-02-11T01:10:03;102397.72;;;-1.79;77.69
43071;BME280;36278;47.952;21.714;2023-02-11T01:12:29;102394.22;;;-1.80;77.13
43071;BME280;36278;47.952;21.714;2023-02-11T01:14:54;102388.06;;;-1.91;77.12
43071;BME280;36278;47.952;21.714;2023-02-11T01:17:20;102386.28;;;-1.97;76.71
43071;BME280;36278;47.952;21.714;2023-02-11T01:19:45;102376.78;;;-1.94;78.01
43071;BME280;36278;47.952;21.714;2023-02-11T01:22:11;102369.91;;;-1.88;77.16
43071;BME280;36278;47.952;21.714;2023-02-11T01:24:36;102371.69;;;-1.82;77.22
43071;BME280;36278;47.952;21.714;2023-02-11T01:27:01;102367.28;;;-1.89;76.92
43071;BME280;36278;47.952;21.714;2023-02-11T01:29:27;102370.81;;;-1.86;77.17
43071;BME280;36278;47.952;21.714;2023-02-11T01:31:52;102370.66;;;-2.01;77.37
43071;BME280;36278;47.952;21.714;2023-02-11T01:34:18;102374.03;;;-2.11;78.27
43071;BME280;36278;47.952;21.714;2023-02-11T01:36:43;102374.88;;;-2.12;77.58
43071;BME280;36278;47.952;21.714;2023-02-11T01:39:09;102378.31;;;-2.16;78.71
43071;BME280;36278;47.952;21.714;2023-02-11T01:41:35;102374.84;;;-2.20;78.04
43071;BME280;36278;47.952;21.714;2023-02-11T01:46:50;102361.81;;;-2.21;78.76
43071;BME280;36278;47.952;21.714;2023-02-11T01:49:20;102357.47;;;-2.26;79.04
43071;BME280;36278;47.952;21.714;2023-02-11T01:51:54;102353.91;;;-2.34;78.97
43071;BME280;36278;47.952;21.714;2023-02-11T01:54:24;102348.66;;;-2.40;79.32
43071;BME280;36278;47.952;21.714;2023-02-11T01:57:10;102339.13;;;-2.41;79.56
43071;BME280;36278;47.952;21.714;2023-02-11T02:00:14;102352.97;;;-2.40;78.96
43071;BME280;36278;47.952;21.714;2023-02-11T02:08:47;102360.66;;;-2.49;80.17
43071;BME280;36278;47.952;21.714;2023-02-11T02:11:16;102374.53;;;-2.46;79.67
43071;BME280;36278;47.952;21.714;2023-02-11T02:13:42;102370.19;;;-2.47;80.21
43071;BME280;36278;47.952;21.714;2023-02-11T02:16:12;102362.41;;;-2.48;80.27
43071;BME280;36278;47.952;21.714;2023-02-11T02:26:42;102345.88;;;-2.57;80.00
43071;BME280;36278;47.952;21.714;2023-02-11T02:29:27;102332.94;;;-2.54;79.55
43071;BME280;36278;47.952;21.714;2023-02-11T02:35:03;102324.19;;;-2.63;79.23
43071;BME280;36278;47.952;21.714;2023-02-11T02:37:38;102316.34;;;-2.69;79.37
43071;BME280;36278;47.952;21.714;2023-02-11T02:40:12;102324.94;;;-2.76;80.07
43071;BME280;36278;47.952;21.714;2023-02-11T02:42:40;102324.06;;;-2.77;79.93
43071;BME280;36278;47.952;21.714;2023-02-11T02:45:08;102327.53;;;-2.76;79.75
43071;BME280;36278;47.952;21.714;2023-02-11T02:47:35;102317.06;;;-2.84;80.09
43071;BME280;36278;47.952;21.714;2023-02-11T02:50:01;102320.47;;;-2.87;80.06
43071;BME280;36278;47.952;21.714;2023-02-11T02:55:56;102311.13;;;-2.72;79.54
43071;BME280;36278;47.952;21.714;2023-02-11T02:59:09;102319.75;;;-2.75;78.97
43071;BME280;36278;47.952;21.714;2023-02-11T03:01:56;102328.31;;;-2.82;79.91
43071;BME280;36278;47.952;21.714;2023-02-11T03:07:36;102325.56;;;-2.94;80.11
43071;BME280;36278;47.952;21.714;2023-02-11T03:10:12;102328.13;;;-2.97;80.56
43071;BME280;36278;47.952;21.714;2023-02-11T03:12:41;102326.41;;;-2.95;79.64
43071;BME280;36278;47.952;21.714;2023-02-11T03:15:10;102326.56;;;-2.85;79.29
43071;BME280;36278;47.952;21.714;2023-02-11T03:17:38;102330.91;;;-2.82;79.04
43071;BME280;36278;47.952;21.714;2023-02-11T03:20:06;102322.88;;;-3.02;79.02
43071;BME280;36278;47.952;21.714;2023-02-11T03:22:39;102330.72;;;-2.97;80.11
43071;BME280;36278;47.952;21.714;2023-02-11T03:25:07;102320.22;;;-3.09;79.51
43071;BME280;36278;47.952;21.714;2023-02-11T03:27:45;102331.41;;;-3.12;80.37
43071;BME280;36278;47.952;21.714;2023-02-11T03:30:34;102340.03;;;-3.13;80.60
43071;BME280;36278;47.952;21.714;2023-02-11T03:33:11;102335.00;;;-3.01;79.91
43071;BME280;36278;47.952;21.714;2023-02-11T03:35:42;102327.31;;;-2.93;78.96
43071;BME280;36278;47.952;21.714;2023-02-11T03:38:18;102318.69;;;-2.92;78.98
43071;BME280;36278;47.952;21.714;2023-02-11T03:40:45;102306.53;;;-2.96;79.02
43071;BME280;36278;47.952;21.714;2023-02-11T03:43:16;102293.56;;;-2.96;79.86
43071;BME280;36278;47.952;21.714;2023-02-11T03:45:45;102294.41;;;-2.99;78.76
43071;BME280;36278;47.952;21.714;2023-02-11T03:48:15;102296.91;;;-3.05;79.30
43071;BME280;36278;47.952;21.714;2023-02-11T03:50:44;102289.16;;;-3.05;79.62
43071;BME280;36278;47.952;21.714;2023-02-11T03:53:11;102277.72;;;-3.21;80.28
43071;BME280;36278;47.952;21.714;2023-02-11T03:55:39;102279.41;;;-3.24;80.50
43071;BME280;36278;47.952;21.714;2023-02-11T03:58:05;102263.00;;;-3.23;80.62
43071;BME280;36278;47.952;21.714;2023-02-11T04:00:32;102263.91;;;-3.18;79.69
43071;BME280;36278;47.952;21.714;2023-02-11T04:02:59;102259.56;;;-3.24;80.01
43071;BME280;36278;47.952;21.714;2023-02-11T04:05:24;102246.50;;;-3.30;80.38
43071;BME280;36278;47.952;21.714;2023-02-11T04:07:50;102252.69;;;-3.19;80.16
43071;BME280;36278;47.952;21.714;2023-02-11T04:10:15;102254.56;;;-3.08;79.35
43071;BME280;36278;47.952;21.714;2023-02-11T04:12:41;102238.94;;;-3.10;79.83
43071;BME280;36278;47.952;21.714;2023-02-11T04:15:06;102226.91;;;-3.06;79.33
43071;BME280;36278;47.952;21.714;2023-02-11T04:17:32;102225.09;;;-3.14;79.39
43071;BME280;36278;47.952;21.714;2023-02-11T04:19:58;102224.06;;;-3.26;79.66
43071;BME280;36278;47.952;21.714;2023-02-11T04:22:23;102217.25;;;-3.20;79.72
43071;BME280;36278;47.952;21.714;2023-02-11T04:24:49;102217.31;;;-3.15;79.42
43071;BME280;36278;47.952;21.714;2023-02-11T04:27:14;102226.75;;;-3.19;78.64
43071;BME280;36278;47.952;21.714;2023-02-11T04:29:39;102231.91;;;-3.23;79.13
43071;BME280;36278;47.952;21.714;2023-02-11T04:32:05;102230.97;;;-3.28;78.86
43071;BME280;36278;47.952;21.714;2023-02-11T04:34:31;102228.28;;;-3.36;79.78
43071;BME280;36278;47.952;21.714;2023-02-11T04:36:56;102224.03;;;-3.31;79.33
43071;BME280;36278;47.952;21.714;2023-02-11T04:39:22;102218.88;;;-3.29;79.33
43071;BME280;36278;47.952;21.714;2023-02-11T04:41:47;102219.63;;;-3.40;79.35
43071;BME280;36278;47.952;21.714;2023-02-11T04:44:12;102217.88;;;-3.42;79.45
43071;BME280;36278;47.952;21.714;2023-02-11T04:46:38;102218.59;;;-3.51;80.37
43071;BME280;36278;47.952;21.714;2023-02-11T04:49:03;102218.66;;;-3.49;80.05
43071;BME280;36278;47.952;21.714;2023-02-11T04:51:29;102228.78;;;-3.66;81.13
43071;BME280;36278;47.952;21.714;2023-02-11T04:53:55;102228.00;;;-3.59;80.85
43071;BME280;36278;47.952;21.714;2023-02-11T04:56:21;102234.00;;;-3.63;80.51
43071;BME280;36278;47.952;21.714;2023-02-11T04:58:46;102234.09;;;-3.57;80.73
43071;BME280;36278;47.952;21.714;2023-02-11T05:01:13;102242.63;;;-3.65;81.19
43071;BME280;36278;47.952;21.714;2023-02-11T05:03:40;102246.97;;;-3.61;80.33
43071;BME280;36278;47.952;21.714;2023-02-11T05:06:06;102251.94;;;-3.77;81.43
43071;BME280;36278;47.952;21.714;2023-02-11T05:08:32;102245.06;;;-3.75;82.14
43071;BME280;36278;47.952;21.714;2023-02-11T05:10:58;102257.97;;;-3.76;80.49
43071;BME280;36278;47.952;21.714;2023-02-11T05:13:23;102257.88;;;-3.84;81.66
43071;BME280;36278;47.952;21.714;2023-02-11T05:15:49;102263.13;;;-3.78;81.25
43071;BME280;36278;47.952;21.714;2023-02-11T05:18:14;102260.69;;;-3.69;80.99
43071;BME280;36278;47.952;21.714;2023-02-11T05:20:41;102254.53;;;-3.75;81.45
43071;BME280;36278;47.952;21.714;2023-02-11T05:23:07;102262.25;;;-3.80;80.96
43071;BME280;36278;47.952;21.714;2023-02-11T05:25:33;102271.50;;;-3.96;82.75
43071;BME280;36278;47.952;21.714;2023-02-11T05:27:59;102265.38;;;-4.02;82.09
43071;BME280;36278;47.952;21.714;2023-02-11T05:30:24;102268.03;;;-3.99;82.70
43071;BME280;36278;47.952;21.714;2023-02-11T05:32:50;102270.69;;;-3.91;82.62
43071;BME280;36278;47.952;21.714;2023-02-11T05:35:16;102272.66;;;-3.77;81.46
43071;BME280;36278;47.952;21.714;2023-02-11T05:37:41;102264.94;;;-3.74;81.06
43071;BME280;36278;47.952;21.714;2023-02-11T05:40:07;102256.13;;;-3.86;81.54
43071;BME280;36278;47.952;21.714;2023-02-11T05:42:32;102264.63;;;-3.95;81.95
43071;BME280;36278;47.952;21.714;2023-02-11T05:44:58;102262.78;;;-4.01;81.67
43071;BME280;36278;47.952;21.714;2023-02-11T05:47:23;102255.00;;;-4.04;82.94
43071;BME280;36278;47.952;21.714;2023-02-11T05:49:50;102259.44;;;-3.95;82.47
43071;BME280;36278;47.952;21.714;2023-02-11T05:52:15;102248.94;;;-4.04;81.89
43071;BME280;36278;47.952;21.714;2023-02-11T05:54:41;102250.81;;;-3.96;82.49
43071;BME280;36278;47.952;21.714;2023-02-11T05:57:06;102247.38;;;-3.95;82.73
43071;BME280;36278;47.952;21.714;2023-02-11T05:59:32;102221.38;;;-4.01;81.88
43071;BME280;36278;47.952;21.714;2023-02-11T06:01:57;102242.34;;;-3.84;81.14
43071;BME280;36278;47.952;21.714;2023-02-11T06:04:22;102240.47;;;-3.92;81.50
43071;BME280;36278;47.952;21.714;2023-02-11T06:06:48;102240.59;;;-3.85;82.60
43071;BME280;36278;47.952;21.714;2023-02-11T06:09:13;102226.78;;;-3.85;81.83
43071;BME280;36278;47.952;21.714;2023-02-11T06:11:39;102221.59;;;-3.85;81.73
43071;BME280;36278;47.952;21.714;2023-02-11T06:14:05;102220.06;;;-3.71;80.70
43071;BME280;36278;47.952;21.714;2023-02-11T06:16:30;102213.19;;;-3.69;80.48
43071;BME280;36278;47.952;21.714;2023-02-11T06:18:56;102224.28;;;-3.79;81.10
43071;BME280;36278;47.952;21.714;2023-02-11T06:21:21;102220.81;;;-3.81;81.23
43071;BME280;36278;47.952;21.714;2023-02-11T06:23:47;102210.41;;;-3.84;80.63
43071;BME280;36278;47.952;21.714;2023-02-11T06:26:19;102215.56;;;-3.84;81.64
43071;BME280;36278;47.952;21.714;2023-02-11T06:28:45;102220.81;;;-3.81;81.11
43071;BME280;36278;47.952;21.714;2023-02-11T06:31:10;102212.41;;;-3.65;80.90
43071;BME280;36278;47.952;21.714;2023-02-11T06:33:37;102207.47;;;-3.45;79.51
43071;BME280;36278;47.952;21.714;2023-02-11T06:36:04;102196.41;;;-3.30;79.03
43071;BME280;36278;47.952;21.714;2023-02-11T06:38:36;102197.16;;;-3.42;78.28
43071;BME280;36278;47.952;21.714;2023-02-11T06:41:02;102195.44;;;-3.39;79.40
43071;BME280;36278;47.952;21.714;2023-02-11T06:43:27;102202.53;;;-3.25;77.91
43071;BME280;36278;47.952;21.714;2023-02-11T06:45:53;102196.59;;;-3.15;78.11
43071;BME280;36278;47.952;21.714;2023-02-11T06:48:19;102191.44;;;-3.11;77.39
43071;BME280;36278;47.952;21.714;2023-02-11T06:50:44;102190.66;;;-3.02;77.45
43071;BME280;36278;47.952;21.714;2023-02-11T06:53:10;102185.59;;;-2.90;77.23
43071;BME280;36278;47.952;21.714;2023-02-11T06:55:35;102179.69;;;-2.75;75.96
43071;BME280;36278;47.952;21.714;2023-02-11T06:58:01;102180.59;;;-2.70;76.08
43071;BME280;36278;47.952;21.714;2023-02-11T07:00:26;102180.72;;;-2.53;75.59
43071;BME280;36278;47.952;21.714;2023-02-11T07:02:54;102173.03;;;-2.42;74.42
43071;BME280;36278;47.952;21.714;2023-02-11T07:05:20;102169.63;;;-2.34;74.39
43071;BME280;36278;47.952;21.714;2023-02-11T07:07:45;102168.78;;;-2.30;74.65
43071;BME280;36278;47.952;21.714;2023-02-11T07:10:11;102158.44;;;-2.25;73.99
43071;BME280;36278;47.952;21.714;2023-02-11T07:12:36;102150.66;;;-2.27;73.75
43071;BME280;36278;47.952;21.714;2023-02-11T07:15:02;102140.28;;;-2.28;74.64
43071;BME280;36278;47.952;21.714;2023-02-11T07:17:27;102148.06;;;-2.22;74.40
43071;BME280;36278;47.952;21.714;2023-02-11T07:19:53;102143.78;;;-2.20;74.20
43071;BME280;36278;47.952;21.714;2023-02-11T07:22:19;102147.31;;;-2.09;74.14
43071;BME280;36278;47.952;21.714;2023-02-11T07:24:44;102138.69;;;-2.03;74.72
43071;BME280;36278;47.952;21.714;2023-02-11T07:27:10;102140.41;;;-1.99;74.79
43071;BME280;36278;47.952;21.714;2023-02-11T07:29:35;102123.16;;;-1.91;73.49
43071;BME280;36278;47.952;21.714;2023-02-11T07:32:01;102134.44;;;-1.86;74.77
43071;BME280;36278;47.952;21.714;2023-02-11T07:34:26;102140.56;;;-1.70;73.21
43071;BME280;36278;47.952;21.714;2023-02-11T07:36:52;102148.38;;;-1.64;73.67
43071;BME280;36278;47.952;21.714;2023-02-11T07:39:17;102140.63;;;-1.55;73.74
43071;BME280;36278;47.952;21.714;2023-02-11T07:41:44;102138.91;;;-1.45;73.53
43071;BME280;36278;47.952;21.714;2023-02-11T07:44:12;102130.25;;;-1.46;73.15
43071;BME280;36278;47.952;21.714;2023-02-11T07:46:37;102134.63;;;-1.26;72.01
43071;BME280;36278;47.952;21.714;2023-02-11T07:49:07;102139.00;;;-1.10;72.32
43071;BME280;36278;47.952;21.714;2023-02-11T07:51:33;102132.06;;;-1.09;72.06
43071;BME280;36278;47.952;21.714;2023-02-11T07:53:59;102147.69;;;-1.03;72.38
43071;BME280;36278;47.952;21.714;2023-02-11T07:56:25;102152.00;;;-0.99;72.45
43071;BME280;36278;47.952;21.714;2023-02-11T07:58:50;102163.28;;;-0.91;72.71
43071;BME280;36278;47.952;21.714;2023-02-11T08:01:21;102171.94;;;-0.91;72.73
43071;BME280;36278;47.952;21.714;2023-02-11T08:03:49;102169.34;;;-0.91;72.20
43071;BME280;36278;47.952;21.714;2023-02-11T08:06:16;102160.69;;;-0.82;72.16
43071;BME280;36278;47.952;21.714;2023-02-11T08:08:43;102161.59;;;-0.81;71.48
43071;BME280;36278;47.952;21.714;2023-02-11T08:11:14;102180.63;;;-0.96;72.69
43071;BME280;36278;47.952;21.714;2023-02-11T08:13:41;102189.28;;;-1.13;73.66
43071;BME280;36278;47.952;21.714;2023-02-11T08:16:07;102171.09;;;-1.05;72.48
43071;BME280;36278;47.952;21.714;2023-02-11T08:18:33;102169.34;;;-0.98;73.17
43071;BME280;36278;47.952;21.714;2023-02-11T08:21:06;102158.97;;;-0.80;72.35
43071;BME280;36278;47.952;21.714;2023-02-11T08:23:35;102169.38;;;-0.71;71.53
43071;BME280;36278;47.952;21.714;2023-02-11T08:26:05;102180.66;;;-0.66;70.67
43071;BME280;36278;47.952;21.714;2023-02-11T08:28:34;102195.41;;;-0.59;70.89
43071;BME280;36278;47.952;21.714;2023-02-11T08:31:07;102196.25;;;-0.93;72.67
43071;BME280;36278;47.952;21.714;2023-02-11T08:33:33;102191.03;;;-0.95;72.53
43071;BME280;36278;47.952;21.714;2023-02-11T08:35:59;102188.44;;;-0.86;72.73
43071;BME280;36278;47.952;21.714;2023-02-11T08:38:25;102181.53;;;-0.68;71.67
43071;BME280;36278;47.952;21.714;2023-02-11T08:40:51;102183.25;;;-0.70;72.03
43071;BME280;36278;47.952;21.714;2023-02-11T08:43:16;102184.97;;;-0.59;72.36
43071;BME280;36278;47.952;21.714;2023-02-11T08:45:42;102185.00;;;-0.48;70.94
43071;BME280;36278;47.952;21.714;2023-02-11T08:48:08;102184.13;;;-0.54;71.63
43071;BME280;36278;47.952;21.714;2023-02-11T08:50:33;102161.56;;;-0.40;71.50
43071;BME280;36278;47.952;21.714;2023-02-11T08:53:03;102157.16;;;-0.09;71.53
43071;BME280;36278;47.952;21.714;2023-02-11T08:55:29;102154.50;;;0.14;71.10
43071;BME280;36278;47.952;21.714;2023-02-11T08:57:54;102146.69;;;0.11;71.44
43071;BME280;36278;47.952;21.714;2023-02-11T09:00:20;102140.50;;;0.38;70.04
43071;BME280;36278;47.952;21.714;2023-02-11T09:02:45;102134.34;;;0.59;69.62
43071;BME280;36278;47.952;21.714;2023-02-11T09:05:11;102123.78;;;0.77;69.67
43071;BME280;36278;47.952;21.714;2023-02-11T09:07:36;102110.84;;;0.60;69.22
43071;BME280;36278;47.952;21.714;2023-02-11T09:10:02;102117.75;;;0.70;68.44
43071;BME280;36278;47.952;21.714;2023-02-11T09:12:28;102114.31;;;0.65;68.76
43071;BME280;36278;47.952;21.714;2023-02-11T09:14:53;102123.00;;;0.63;69.29
43071;BME280;36278;47.952;21.714;2023-02-11T09:17:19;102119.53;;;0.61;69.43
43071;BME280;36278;47.952;21.714;2023-02-11T09:19:44;102123.84;;;0.63;69.52
43071;BME280;36278;47.952;21.714;2023-02-11T09:22:10;102126.44;;;0.65;69.41
43071;BME280;36278;47.952;21.714;2023-02-11T09:24:35;102121.34;;;0.49;70.62
43071;BME280;36278;47.952;21.714;2023-02-11T09:27:01;102114.28;;;0.67;70.15
43071;BME280;36278;47.952;21.714;2023-02-11T09:29:26;102117.66;;;0.84;69.43
43071;BME280;36278;47.952;21.714;2023-02-11T09:31:51;102110.81;;;0.65;70.60
43071;BME280;36278;47.952;21.714;2023-02-11T09:34:17;102108.91;;;0.88;70.20
43071;BME280;36278;47.952;21.714;2023-02-11T09:36:42;102099.28;;;1.01;69.29
43071;BME280;36278;47.952;21.714;2023-02-11T09:39:15;102106.91;;;1.25;68.95
43071;BME280;36278;47.952;21.714;2023-02-11T09:44:31;102100.72;;;1.34;67.55
43071;BME280;36278;47.952;21.714;2023-02-11T09:47:09;102095.41;;;1.43;67.31
43071;BME280;36278;47.952;21.714;2023-02-11T09:49:50;102092.78;;;1.48;67.42
43071;BME280;36278;47.952;21.714;2023-02-11T09:52:24;102088.50;;;1.40;67.04
43071;BME280;36278;47.952;21.714;2023-02-11T09:54:59;102078.16;;;1.28;67.14
43071;BME280;36278;47.952;21.714;2023-02-11T09:57:31;102076.56;;;1.12;68.80
43071;BME280;36278;47.952;21.714;2023-02-11T09:59:58;102074.75;;;1.20;68.00
43071;BME280;36278;47.952;21.714;2023-02-11T10:02:35;102084.16;;;1.36;67.97
43071;BME280;36278;47.952;21.714;2023-02-11T10:08:11;102079.72;;;1.45;67.94
43071;BME280;36278;47.952;21.714;2023-02-11T10:11:05;102083.09;;;1.57;67.18
43071;BME280;36278;47.952;21.714;2023-02-11T10:22:21;102063.22;;;2.18;65.24
43071;BME280;36278;47.952;21.714;2023-02-11T10:24:53;102054.75;;;1.99;65.75
43071;BME280;36278;47.952;21.714;2023-02-11T10:27:20;102046.38;;;1.73;65.45
43071;BME280;36278;47.952;21.714;2023-02-11T10:29:52;102051.41;;;1.88;66.82
43071;BME280;36278;47.952;21.714;2023-02-11T10:34:45;102044.25;;;2.02;66.43
43071;BME280;36278;47.952;21.714;2023-02-11T10:37:12;102044.34;;;1.94;67.03
43071;BME280;36278;47.952;21.714;2023-02-11T10:39:39;102038.25;;;1.94;66.82
43071;BME280;36278;47.952;21.714;2023-02-11T10:42:09;102027.94;;;1.83;68.13
43071;BME280;36278;47.952;21.714;2023-02-11T10:44:43;102038.44;;;1.80;67.80
43071;BME280;36278;47.952;21.714;2023-02-11T10:47:19;102021.94;;;1.75;68.32
43071;BME280;36278;47.952;21.714;2023-02-11T10:49:47;102009.47;;;1.99;67.90
43071;BME280;36278;47.952;21.714;2023-02-11T10:52:20;102004.03;;;2.14;67.44
43071;BME280;36278;47.952;21.714;2023-02-11T10:57:25;101989.88;;;2.29;68.20
43071;BME280;36278;47.952;21.714;2023-02-11T10:59:57;101992.25;;;2.44;66.70
43071;BME280;36278;47.952;21.714;2023-02-11T11:02:30;102001.34;;;2.75;66.70
43071;BME280;36278;47.952;21.714;2023-02-11T11:05:02;101988.69;;;3.00;67.29
43071;BME280;36278;47.952;21.714;2023-02-11T11:07:30;101994.75;;;3.04;65.71
43071;BME280;36278;47.952;21.714;2023-02-11T11:10:01;101996.41;;;3.09;65.23
43071;BME280;36278;47.952;21.714;2023-02-11T11:12:56;101989.53;;;3.04;64.53
43071;BME280;36278;47.952;21.714;2023-02-11T11:15:21;101987.84;;;3.01;66.17
43071;BME280;36278;47.952;21.714;2023-02-11T11:17:49;101993.19;;;2.92;64.91
43071;BME280;36278;47.952;21.714;2023-02-11T11:20:29;101984.63;;;2.86;65.75
43071;BME280;36278;47.952;21.714;2023-02-11T11:23:19;101989.94;;;2.79;66.78
43071;BME280;36278;47.952;21.714;2023-02-11T11:26:10;101987.66;;;2.58;68.39
43071;BME280;36278;47.952;21.714;2023-02-11T11:29:01;101984.53;;;2.35;68.86
43071;BME280;36278;47.952;21.714;2023-02-11T11:31:31;101982.78;;;2.35;69.60
43071;BME280;36278;47.952;21.714;2023-02-11T11:33:59;101983.19;;;2.08;68.41
43071;BME280;36278;47.952;21.714;2023-02-11T11:36:34;101978.00;;;2.06;69.46
43071;BME280;36278;47.952;21.714;2023-02-11T11:39:14;101967.47;;;2.09;69.97
43071;BME280;36278;47.952;21.714;2023-02-11T11:41:49;101951.59;;;2.23;69.50
43071;BME280;36278;47.952;21.714;2023-02-11T11:44:25;101963.22;;;2.04;69.88
43071;BME280;36278;47.952;21.714;2023-02-11T11:52:47;101947.25;;;2.76;69.83
43071;BME280;36278;47.952;21.714;2023-02-11T11:55:18;101938.00;;;3.06;67.75
43071;BME280;36278;47.952;21.714;2023-02-11T11:57:46;101934.13;;;3.25;66.94
43071;BME280;36278;47.952;21.714;2023-02-11T12:00:26;101931.91;;;3.49;67.04
43071;BME280;36278;47.952;21.714;2023-02-11T12:10:46;101915.53;;;4.18;64.33
43071;BME280;36278;47.952;21.714;2023-02-11T12:27:14;101877.38;;;4.74;63.38
43071;BME280;36278;47.952;21.714;2023-02-11T12:29:55;101870.63;;;4.66;63.52
43071;BME280;36278;47.952;21.714;2023-02-11T12:35:20;101858.50;;;4.26;63.94
43071;BME280;36278;47.952;21.714;2023-02-11T12:43:24;101829.66;;;5.21;61.40
43071;BME280;36278;47.952;21.714;2023-02-11T12:52:30;101799.94;;;6.56;56.92
43071;BME280;36278;47.952;21.714;2023-02-11T12:55:14;101807.03;;;6.29;58.43
43071;BME280;36278;47.952;21.714;2023-02-11T12:57:45;101806.63;;;6.39;58.58
43071;BME280;36278;47.952;21.714;2023-02-11T13:00:20;101788.38;;;6.35;57.97
43071;BME280;36278;47.952;21.714;2023-02-11T13:03:10;101788.31;;;5.83;59.01
43071;BME280;36278;47.952;21.714;2023-02-11T13:05:39;101779.13;;;6.48;58.01
43071;BME280;36278;47.952;21.714;2023-02-11T13:08:13;101781.47;;;6.81;56.10
43071;BME280;36278;47.952;21.714;2023-02-11T13:10:42;101794.03;;;6.97;55.34
43071;BME280;36278;47.952;21.714;2023-02-11T13:13:18;101792.75;;;7.08;55.01
43071;BME280;36278;47.952;21.714;2023-02-11T13:16:04;101800.03;;;7.24;54.94
43071;BME280;36278;47.952;21.714;2023-02-11T13:21:18;101796.59;;;6.99;55.59
43071;BME280;36278;47.952;21.714;2023-02-11T13:24:07;101798.09;;;7.06;55.17
43071;BME280;36278;47.952;21.714;2023-02-11T13:35:34;101793.97;;;7.22;54.92
43071;BME280;36278;47.952;21.714;2023-02-11T13:38:02;101777.09;;;7.50;53.74
43071;BME280;36278;47.952;21.714;2023-02-11T13:40:33;101767.16;;;6.88;56.44
43071;BME280;36278;47.952;21.714;2023-02-11T13:43:04;101756.25;;;7.66;55.00
43071;BME280;36278;47.952;21.714;2023-02-11T13:45:51;101738.31;;;7.52;54.87
43071;BME280;36278;47.952;21.714;2023-02-11T13:48:24;101728.97;;;7.65;54.43
43071;BME280;36278;47.952;21.714;2023-02-11T13:50:53;101718.47;;;8.06;53.79
43071;BME280;36278;47.952;21.714;2023-02-11T13:53:20;101727.25;;;7.86;54.30
43071;BME280;36278;47.952;21.714;2023-02-11T13:55:51;101735.00;;;7.47;54.32
43071;BME280;36278;47.952;21.714;2023-02-11T13:58:47;101737.09;;;7.39;54.38
43071;BME280;36278;47.952;21.714;2023-02-11T14:01:43;101739.25;;;7.51;53.80
43071;BME280;36278;47.952;21.714;2023-02-11T14:10:59;101717.41;;;7.90;53.61
43071;BME280;36278;47.952;21.714;2023-02-11T14:13:31;101721.03;;;7.45;54.33
43071;BME280;36278;47.952;21.714;2023-02-11T14:16:14;101718.44;;;7.21;54.51
43071;BME280;36278;47.952;21.714;2023-02-11T14:30:04;101728.47;;;6.16;56.90
43071;BME280;36278;47.952;21.714;2023-02-11T14:41:04;101734.53;;;5.39;60.08
43071;BME280;36278;47.952;21.714;2023-02-11T14:43:38;101735.16;;;5.19;60.66
43071;BME280;36278;47.952;21.714;2023-02-11T14:46:04;101737.53;;;4.99;61.25
43071;BME280;36278;47.952;21.714;2023-02-11T14:48:33;101742.22;;;4.88;61.98
43071;BME280;36278;47.952;21.714;2023-02-11T14:51:06;101741.41;;;4.55;62.63
43071;BME280;36278;47.952;21.714;2023-02-11T14:53:35;101737.81;;;4.59;63.84
43071;BME280;36278;47.952;21.714;2023-02-11T14:56:01;101741.16;;;4.64;63.82
43071;BME280;36278;47.952;21.714;2023-02-11T14:58:30;101746.25;;;4.70;63.27
43071;BME280;36278;47.952;21.714;2023-02-11T15:03:35;101717.31;;;4.73;63.12